sensor_id;sensor_type;location;lat;lon;timestamp;temperature;humidity
530;DHT22;251;48.704;9.210;2022-12-19T00:00:01;-3.30;80.60
530;DHT22;251;48.704;9.210;2022-12-19T00:02:38;-3.20;80.60
530;DHT22;251;48.704;9.210;2022-12-19T00:05:05;-3.10;81.00
530;DHT22;251;48.704;9.210;2022-12-19T00:07:33;-3.40;80.50
530;DHT22;251;48.704;9.210;2022-12-19T00:10:00;-3.20;81.00
530;DHT22;251;48.704;9.210;2022-12-19T00:12:27;-3.20;81.20
530;DHT22;251;48.704;9.210;2022-12-19T00:14:54;-3.20;81.10
530;DHT22;251;48.704;9.210;2022-12-19T00:17:21;-3.20;80.90
530;DHT22;251;48.704;9.210;2022-12-19T00:19:48;-3.00;81.60
530;DHT22;251;48.704;9.210;2022-12-19T00:22:15;-3.10;81.30
530;DHT22;251;48.704;9.210;2022-12-19T00:24:43;-3.10;81.30
530;DHT22;251;48.704;9.210;2022-12-19T00:27:09;-3.10;81.60
530;DHT22;251;48.704;9.210;2022-12-19T00:29:36;-3.20;81.60
530;DHT22;251;48.704;9.210;2022-12-19T00:32:03;-3.10;81.80
530;DHT22;251;48.704;9.210;2022-12-19T00:34:30;-3.10;80.90
530;DHT22;251;48.704;9.210;2022-12-19T00:36:57;-3.00;81.80
530;DHT22;251;48.704;9.210;2022-12-19T00:39:27;-3.20;81.50
530;DHT22;251;48.704;9.210;2022-12-19T00:41:55;-3.10;81.80
530;DHT22;251;48.704;9.210;2022-12-19T00:44:22;-3.20;81.60
530;DHT22;251;48.704;9.210;2022-12-19T00:46:49;-3.00;81.30
530;DHT22;251;48.704;9.210;2022-12-19T00:49:15;-3.00;80.90
530;DHT22;251;48.704;9.210;2022-12-19T00:51:42;-3.20;80.30
530;DHT22;251;48.704;9.210;2022-12-19T00:54:09;-2.90;80.60
530;DHT22;251;48.704;9.210;2022-12-19T00:56:36;-3.10;80.90
530;DHT22;251;48.704;9.210;2022-12-19T00:59:06;-3.00;80.70
530;DHT22;251;48.704;9.210;2022-12-19T01:01:36;-3.20;81.00
530;DHT22;251;48.704;9.210;2022-12-19T01:04:05;-3.10;81.20
530;DHT22;251;48.704;9.210;2022-12-19T01:06:33;-3.00;81.70
530;DHT22;251;48.704;9.210;2022-12-19T01:09:00;-3.10;81.40
530;DHT22;251;48.704;9.210;2022-12-19T01:11:26;-3.20;81.50
530;DHT22;251;48.704;9.210;2022-12-19T01:14:11;-3.10;81.70
530;DHT22;251;48.704;9.210;2022-12-19T01:16:38;-3.00;82.00
530;DHT22;251;48.704;9.210;2022-12-19T01:19:05;-3.20;81.80
530;DHT22;251;48.704;9.210;2022-12-19T01:21:32;-3.10;81.90
530;DHT22;251;48.704;9.210;2022-12-19T01:24:00;-2.90;82.50
530;DHT22;251;48.704;9.210;2022-12-19T01:26:28;-2.90;82.40
530;DHT22;251;48.704;9.210;2022-12-19T01:28:55;-2.90;81.90
530;DHT22;251;48.704;9.210;2022-12-19T01:31:23;-2.80;82.50
530;DHT22;251;48.704;9.210;2022-12-19T01:33:50;-3.00;82.30
530;DHT22;251;48.704;9.210;2022-12-19T01:36:16;-2.90;82.50
530;DHT22;251;48.704;9.210;2022-12-19T01:38:43;-2.90;82.70
530;DHT22;251;48.704;9.210;2022-12-19T01:41:10;-2.90;83.20
530;DHT22;251;48.704;9.210;2022-12-19T01:43:53;-2.90;83.10
530;DHT22;251;48.704;9.210;2022-12-19T01:46:25;-2.80;83.40
530;DHT22;251;48.704;9.210;2022-12-19T01:48:52;-2.80;83.80
530;DHT22;251;48.704;9.210;2022-12-19T01:51:22;-2.60;84.10
530;DHT22;251;48.704;9.210;2022-12-19T01:53:51;-3.00;83.70
530;DHT22;251;48.704;9.210;2022-12-19T01:56:23;-2.70;84.20
530;DHT22;251;48.704;9.210;2022-12-19T01:58:52;-3.00;84.30
530;DHT22;251;48.704;9.210;2022-12-19T02:01:20;-2.90;84.80
530;DHT22;251;48.704;9.210;2022-12-19T02:03:49;-2.70;83.60
530;DHT22;251;48.704;9.210;2022-12-19T02:06:16;-2.80;84.70
530;DHT22;251;48.704;9.210;2022-12-19T02:08:46;-2.70;85.10
530;DHT22;251;48.704;9.210;2022-12-19T02:11:13;-2.70;85.30
530;DHT22;251;48.704;9.210;2022-12-19T02:13:40;-2.70;85.20
530;DHT22;251;48.704;9.210;2022-12-19T02:16:14;-2.60;85.30
530;DHT22;251;48.704;9.210;2022-12-19T02:18:46;-2.60;85.90
530;DHT22;251;48.704;9.210;2022-12-19T02:21:29;-2.70;86.60
530;DHT22;251;48.704;9.210;2022-12-19T02:27:23;-2.80;88.30
530;DHT22;251;48.704;9.210;2022-12-19T02:30:06;-2.60;89.70
530;DHT22;251;48.704;9.210;2022-12-19T02:32:47;-2.60;90.00
530;DHT22;251;48.704;9.210;2022-12-19T02:35:24;-2.40;90.10
530;DHT22;251;48.704;9.210;2022-12-19T02:37:57;-2.30;90.40
530;DHT22;251;48.704;9.210;2022-12-19T02:40:33;-2.40;90.60
530;DHT22;251;48.704;9.210;2022-12-19T02:43:02;-2.50;90.80
530;DHT22;251;48.704;9.210;2022-12-19T02:45:34;-2.40;91.20
530;DHT22;251;48.704;9.210;2022-12-19T02:48:04;-2.50;91.50
530;DHT22;251;48.704;9.210;2022-12-19T02:50:37;-2.40;92.00
530;DHT22;251;48.704;9.210;2022-12-19T02:53:04;-2.40;92.20
530;DHT22;251;48.704;9.210;2022-12-19T02:55:37;-2.20;92.70
530;DHT22;251;48.704;9.210;2022-12-19T02:58:20;-2.40;92.60
530;DHT22;251;48.704;9.210;2022-12-19T03:00:55;-2.30;93.30
530;DHT22;251;48.704;9.210;2022-12-19T03:03:32;-2.10;93.60
530;DHT22;251;48.704;9.210;2022-12-19T03:06:05;-2.30;93.30
530;DHT22;251;48.704;9.210;2022-12-19T03:08:45;-1.80;93.30
530;DHT22;251;48.704;9.210;2022-12-19T03:11:13;-2.00;93.30
530;DHT22;251;48.704;9.210;2022-12-19T03:13:49;-2.00;93.40
530;DHT22;251;48.704;9.210;2022-12-19T03:16:17;-2.10;93.60
530;DHT22;251;48.704;9.210;2022-12-19T03:18:45;-2.10;93.90
530;DHT22;251;48.704;9.210;2022-12-19T03:21:16;-2.10;94.20
530;DHT22;251;48.704;9.210;2022-12-19T03:23:47;-2.10;94.60
530;DHT22;251;48.704;9.210;2022-12-19T03:26:17;-2.00;94.70
530;DHT22;251;48.704;9.210;2022-12-19T03:28:48;-2.00;95.20
530;DHT22;251;48.704;9.210;2022-12-19T03:31:18;-2.10;95.50
530;DHT22;251;48.704;9.210;2022-12-19T03:33:50;-1.80;96.10
530;DHT22;251;48.704;9.210;2022-12-19T03:36:26;-1.70;96.70
530;DHT22;251;48.704;9.210;2022-12-19T03:38:55;-1.90;97.00
530;DHT22;251;48.704;9.210;2022-12-19T03:41:24;-1.80;97.70
530;DHT22;251;48.704;9.210;2022-12-19T03:44:06;-2.00;97.80
530;DHT22;251;48.704;9.210;2022-12-19T03:46:34;-1.50;98.50
530;DHT22;251;48.704;9.210;2022-12-19T03:49:06;-1.50;98.80
530;DHT22;251;48.704;9.210;2022-12-19T03:51:39;-1.80;98.90
530;DHT22;251;48.704;9.210;2022-12-19T03:54:11;-1.90;99.10
530;DHT22;251;48.704;9.210;2022-12-19T03:56:44;-1.90;99.00
530;DHT22;251;48.704;9.210;2022-12-19T03:59:17;-1.80;98.90
530;DHT22;251;48.704;9.210;2022-12-19T04:01:46;-1.50;99.00
530;DHT22;251;48.704;9.210;2022-12-19T04:04:16;-1.50;98.60
530;DHT22;251;48.704;9.210;2022-12-19T04:06:44;-1.60;98.20
530;DHT22;251;48.704;9.210;2022-12-19T04:09:11;-1.70;97.70
530;DHT22;251;48.704;9.210;2022-12-19T04:11:41;-1.70;97.50
530;DHT22;251;48.704;9.210;2022-12-19T04:14:15;-1.40;97.60
530;DHT22;251;48.704;9.210;2022-12-19T04:16:46;-1.70;97.60
530;DHT22;251;48.704;9.210;2022-12-19T04:19:18;-1.60;98.00
530;DHT22;251;48.704;9.210;2022-12-19T04:21:51;-1.70;98.00
530;DHT22;251;48.704;9.210;2022-12-19T04:24:25;-1.70;98.00
530;DHT22;251;48.704;9.210;2022-12-19T04:26:54;-1.30;98.30
530;DHT22;251;48.704;9.210;2022-12-19T04:29:23;-1.40;98.40
530;DHT22;251;48.704;9.210;2022-12-19T04:31:52;-1.40;98.80
530;DHT22;251;48.704;9.210;2022-12-19T04:34:21;-1.60;98.70
530;DHT22;251;48.704;9.210;2022-12-19T04:36:49;-1.40;99.30
530;DHT22;251;48.704;9.210;2022-12-19T04:39:16;-1.30;99.10
530;DHT22;251;48.704;9.210;2022-12-19T04:41:43;-1.20;99.30
530;DHT22;251;48.704;9.210;2022-12-19T04:44:10;-1.40;99.20
530;DHT22;251;48.704;9.210;2022-12-19T04:46:37;-1.10;99.10
530;DHT22;251;48.704;9.210;2022-12-19T04:49:04;-1.50;99.20
530;DHT22;251;48.704;9.210;2022-12-19T04:51:32;-1.20;99.40
530;DHT22;251;48.704;9.210;2022-12-19T04:53:59;-1.50;99.30
530;DHT22;251;48.704;9.210;2022-12-19T04:56:25;-1.10;99.30
530;DHT22;251;48.704;9.210;2022-12-19T04:58:55;-1.50;99.00
530;DHT22;251;48.704;9.210;2022-12-19T05:01:23;-1.10;99.10
530;DHT22;251;48.704;9.210;2022-12-19T05:03:49;-1.10;99.00
530;DHT22;251;48.704;9.210;2022-12-19T05:06:18;-1.20;99.40
530;DHT22;251;48.704;9.210;2022-12-19T05:08:46;-1.50;99.20
530;DHT22;251;48.704;9.210;2022-12-19T05:11:15;-1.20;99.20
530;DHT22;251;48.704;9.210;2022-12-19T05:13:42;-1.20;99.60
530;DHT22;251;48.704;9.210;2022-12-19T05:16:10;-1.20;99.80
530;DHT22;251;48.704;9.210;2022-12-19T05:18:38;-1.30;99.90
530;DHT22;251;48.704;9.210;2022-12-19T05:21:05;-1.10;99.90
530;DHT22;251;48.704;9.210;2022-12-19T05:23:32;-1.10;99.90
530;DHT22;251;48.704;9.210;2022-12-19T05:26:01;-1.00;99.90
530;DHT22;251;48.704;9.210;2022-12-19T05:28:28;-1.40;99.90
530;DHT22;251;48.704;9.210;2022-12-19T05:31:02;-1.00;99.90
530;DHT22;251;48.704;9.210;2022-12-19T05:33:29;-1.20;99.90
530;DHT22;251;48.704;9.210;2022-12-19T05:35:56;-0.90;99.90
530;DHT22;251;48.704;9.210;2022-12-19T05:38:23;-1.00;99.90
530;DHT22;251;48.704;9.210;2022-12-19T05:40:51;-1.20;99.90
530;DHT22;251;48.704;9.210;2022-12-19T05:43:19;-1.00;99.90
530;DHT22;251;48.704;9.210;2022-12-19T05:45:46;-1.20;99.90
530;DHT22;251;48.704;9.210;2022-12-19T05:48:12;-0.90;99.90
530;DHT22;251;48.704;9.210;2022-12-19T05:50:40;-0.90;99.90
530;DHT22;251;48.704;9.210;2022-12-19T05:53:09;-0.90;99.90
530;DHT22;251;48.704;9.210;2022-12-19T05:55:36;-0.90;99.90
530;DHT22;251;48.704;9.210;2022-12-19T05:58:03;-1.00;99.90
530;DHT22;251;48.704;9.210;2022-12-19T06:00:31;-1.00;99.90
530;DHT22;251;48.704;9.210;2022-12-19T06:02:58;-1.20;99.90
530;DHT22;251;48.704;9.210;2022-12-19T06:05:25;-0.90;99.90
530;DHT22;251;48.704;9.210;2022-12-19T06:07:51;-0.70;99.90
530;DHT22;251;48.704;9.210;2022-12-19T06:10:18;-0.70;99.90
530;DHT22;251;48.704;9.210;2022-12-19T06:12:45;-0.70;99.90
530;DHT22;251;48.704;9.210;2022-12-19T06:15:12;-0.70;99.90
530;DHT22;251;48.704;9.210;2022-12-19T06:17:40;-0.70;99.90
530;DHT22;251;48.704;9.210;2022-12-19T06:20:08;-0.70;99.90
530;DHT22;251;48.704;9.210;2022-12-19T06:22:35;-0.70;99.90
530;DHT22;251;48.704;9.210;2022-12-19T06:25:02;-0.80;99.90
530;DHT22;251;48.704;9.210;2022-12-19T06:27:29;-0.90;99.90
530;DHT22;251;48.704;9.210;2022-12-19T06:29:55;-1.00;99.90
530;DHT22;251;48.704;9.210;2022-12-19T06:32:22;-0.80;99.90
530;DHT22;251;48.704;9.210;2022-12-19T06:34:50;-1.00;99.90
530;DHT22;251;48.704;9.210;2022-12-19T06:37:17;-0.70;99.90
530;DHT22;251;48.704;9.210;2022-12-19T06:39:44;-0.70;99.90
530;DHT22;251;48.704;9.210;2022-12-19T06:42:11;-0.70;99.90
530;DHT22;251;48.704;9.210;2022-12-19T06:44:49;-0.70;99.90
530;DHT22;251;48.704;9.210;2022-12-19T06:47:17;-0.50;99.90
530;DHT22;251;48.704;9.210;2022-12-19T06:49:44;-0.50;99.90
530;DHT22;251;48.704;9.210;2022-12-19T06:52:14;-0.80;99.90
530;DHT22;251;48.704;9.210;2022-12-19T06:54:41;-0.70;99.90
530;DHT22;251;48.704;9.210;2022-12-19T06:57:08;-0.50;99.90
530;DHT22;251;48.704;9.210;2022-12-19T06:59:35;-0.60;99.90
530;DHT22;251;48.704;9.210;2022-12-19T07:02:08;-0.50;99.90
530;DHT22;251;48.704;9.210;2022-12-19T07:04:40;-0.50;99.90
530;DHT22;251;48.704;9.210;2022-12-19T07:07:09;-0.50;99.90
530;DHT22;251;48.704;9.210;2022-12-19T07:09:37;-0.60;99.90
530;DHT22;251;48.704;9.210;2022-12-19T07:12:05;-0.70;99.90
530;DHT22;251;48.704;9.210;2022-12-19T07:14:31;-0.50;99.90
530;DHT22;251;48.704;9.210;2022-12-19T07:16:59;-0.60;99.90
530;DHT22;251;48.704;9.210;2022-12-19T07:19:27;-0.80;99.90
530;DHT22;251;48.704;9.210;2022-12-19T07:21:55;-0.80;99.90
530;DHT22;251;48.704;9.210;2022-12-19T07:24:23;-0.80;99.90
530;DHT22;251;48.704;9.210;2022-12-19T07:26:51;-0.80;99.90
530;DHT22;251;48.704;9.210;2022-12-19T07:29:18;-0.80;99.90
530;DHT22;251;48.704;9.210;2022-12-19T07:31:44;-0.50;99.90
530;DHT22;251;48.704;9.210;2022-12-19T07:34:11;-0.60;99.90
530;DHT22;251;48.704;9.210;2022-12-19T07:36:38;-0.70;99.90
530;DHT22;251;48.704;9.210;2022-12-19T07:39:05;-0.40;99.90
530;DHT22;251;48.704;9.210;2022-12-19T07:41:35;-0.50;99.90
530;DHT22;251;48.704;9.210;2022-12-19T07:44:03;-0.50;99.90
530;DHT22;251;48.704;9.210;2022-12-19T07:46:30;-0.40;99.90
530;DHT22;251;48.704;9.210;2022-12-19T07:48:57;-0.30;99.90
530;DHT22;251;48.704;9.210;2022-12-19T07:51:24;-0.30;99.90
530;DHT22;251;48.704;9.210;2022-12-19T07:53:51;-0.30;99.90
530;DHT22;251;48.704;9.210;2022-12-19T07:56:18;-0.30;99.90
530;DHT22;251;48.704;9.210;2022-12-19T07:58:44;-0.30;99.90
530;DHT22;251;48.704;9.210;2022-12-19T08:01:13;-0.30;99.90
530;DHT22;251;48.704;9.210;2022-12-19T08:03:39;-0.30;99.90
530;DHT22;251;48.704;9.210;2022-12-19T08:06:08;-0.30;99.90
530;DHT22;251;48.704;9.210;2022-12-19T08:08:35;-0.30;99.90
530;DHT22;251;48.704;9.210;2022-12-19T08:11:06;-0.30;99.90
530;DHT22;251;48.704;9.210;2022-12-19T08:13:33;-0.30;99.90
530;DHT22;251;48.704;9.210;2022-12-19T08:16:00;-0.30;99.90
530;DHT22;251;48.704;9.210;2022-12-19T08:18:28;-0.30;99.90
530;DHT22;251;48.704;9.210;2022-12-19T08:20:55;-0.40;99.90
530;DHT22;251;48.704;9.210;2022-12-19T08:23:22;-0.20;99.90
530;DHT22;251;48.704;9.210;2022-12-19T08:25:57;-0.20;99.90
530;DHT22;251;48.704;9.210;2022-12-19T08:28:24;-0.10;99.90
530;DHT22;251;48.704;9.210;2022-12-19T08:30:51;0.00;99.90
530;DHT22;251;48.704;9.210;2022-12-19T08:33:18;-0.10;99.90
530;DHT22;251;48.704;9.210;2022-12-19T08:35:46;-0.10;99.90
530;DHT22;251;48.704;9.210;2022-12-19T08:38:13;-0.10;99.90
530;DHT22;251;48.704;9.210;2022-12-19T08:40:40;-0.10;99.90
530;DHT22;251;48.704;9.210;2022-12-19T08:43:07;0.00;99.90
530;DHT22;251;48.704;9.210;2022-12-19T08:45:33;-0.10;99.90
530;DHT22;251;48.704;9.210;2022-12-19T08:48:00;0.10;99.90
530;DHT22;251;48.704;9.210;2022-12-19T08:50:27;0.10;99.90
530;DHT22;251;48.704;9.210;2022-12-19T08:52:55;0.10;99.90
530;DHT22;251;48.704;9.210;2022-12-19T08:55:22;0.20;99.90
530;DHT22;251;48.704;9.210;2022-12-19T08:57:50;0.10;99.90
530;DHT22;251;48.704;9.210;2022-12-19T09:00:17;0.00;99.90
530;DHT22;251;48.704;9.210;2022-12-19T09:02:43;0.10;99.90
530;DHT22;251;48.704;9.210;2022-12-19T09:05:10;0.10;99.90
530;DHT22;251;48.704;9.210;2022-12-19T09:07:37;0.10;99.90
530;DHT22;251;48.704;9.210;2022-12-19T09:10:07;0.30;99.90
530;DHT22;251;48.704;9.210;2022-12-19T09:12:34;0.10;99.90
530;DHT22;251;48.704;9.210;2022-12-19T09:15:00;0.30;99.90
530;DHT22;251;48.704;9.210;2022-12-19T09:17:27;0.50;99.90
530;DHT22;251;48.704;9.210;2022-12-19T09:19:54;0.40;99.90
530;DHT22;251;48.704;9.210;2022-12-19T09:22:21;0.30;99.90
530;DHT22;251;48.704;9.210;2022-12-19T09:24:47;0.50;99.90
530;DHT22;251;48.704;9.210;2022-12-19T09:27:16;0.40;99.90
530;DHT22;251;48.704;9.210;2022-12-19T09:29:42;0.30;99.90
530;DHT22;251;48.704;9.210;2022-12-19T09:32:09;0.40;99.90
530;DHT22;251;48.704;9.210;2022-12-19T09:34:36;0.30;99.90
530;DHT22;251;48.704;9.210;2022-12-19T09:37:04;0.60;99.90
530;DHT22;251;48.704;9.210;2022-12-19T09:39:31;0.30;99.90
530;DHT22;251;48.704;9.210;2022-12-19T09:42:17;0.70;99.90
530;DHT22;251;48.704;9.210;2022-12-19T09:45:08;0.60;99.90
530;DHT22;251;48.704;9.210;2022-12-19T09:47:39;0.80;99.90
530;DHT22;251;48.704;9.210;2022-12-19T09:50:22;0.60;99.90
530;DHT22;251;48.704;9.210;2022-12-19T09:52:57;0.60;99.90
530;DHT22;251;48.704;9.210;2022-12-19T09:55:31;0.70;99.90
530;DHT22;251;48.704;9.210;2022-12-19T09:58:05;0.60;99.90
530;DHT22;251;48.704;9.210;2022-12-19T10:00:39;0.90;99.90
530;DHT22;251;48.704;9.210;2022-12-19T10:03:15;0.90;99.90
530;DHT22;251;48.704;9.210;2022-12-19T10:05:46;0.90;99.90
530;DHT22;251;48.704;9.210;2022-12-19T10:08:16;0.90;99.90
530;DHT22;251;48.704;9.210;2022-12-19T10:10:53;0.80;99.90
530;DHT22;251;48.704;9.210;2022-12-19T10:13:33;0.90;99.90
530;DHT22;251;48.704;9.210;2022-12-19T10:16:09;0.90;99.90
530;DHT22;251;48.704;9.210;2022-12-19T10:18:47;0.80;99.90
530;DHT22;251;48.704;9.210;2022-12-19T10:21:24;0.80;99.90
530;DHT22;251;48.704;9.210;2022-12-19T10:24:12;1.00;99.90
530;DHT22;251;48.704;9.210;2022-12-19T10:26:47;1.10;99.90
530;DHT22;251;48.704;9.210;2022-12-19T10:29:29;1.00;99.90
530;DHT22;251;48.704;9.210;2022-12-19T10:32:03;1.10;99.90
530;DHT22;251;48.704;9.210;2022-12-19T10:34:35;1.30;99.90
530;DHT22;251;48.704;9.210;2022-12-19T10:37:19;1.10;99.90
530;DHT22;251;48.704;9.210;2022-12-19T10:39:54;1.50;99.90
530;DHT22;251;48.704;9.210;2022-12-19T10:42:31;1.30;99.90
530;DHT22;251;48.704;9.210;2022-12-19T10:45:03;1.30;99.90
530;DHT22;251;48.704;9.210;2022-12-19T10:47:32;1.30;99.90
530;DHT22;251;48.704;9.210;2022-12-19T10:49:59;1.30;99.90
530;DHT22;251;48.704;9.210;2022-12-19T10:52:47;1.30;99.90
530;DHT22;251;48.704;9.210;2022-12-19T10:55:23;1.20;99.90
530;DHT22;251;48.704;9.210;2022-12-19T10:57:57;1.20;99.90
530;DHT22;251;48.704;9.210;2022-12-19T11:00:25;1.20;99.90
530;DHT22;251;48.704;9.210;2022-12-19T11:03:09;1.20;99.90
530;DHT22;251;48.704;9.210;2022-12-19T11:05:40;1.50;99.90
530;DHT22;251;48.704;9.210;2022-12-19T11:08:15;1.30;99.90
530;DHT22;251;48.704;9.210;2022-12-19T11:10:44;1.50;99.90
530;DHT22;251;48.704;9.210;2022-12-19T11:13:19;1.30;99.90
530;DHT22;251;48.704;9.210;2022-12-19T11:15:49;1.80;99.90
530;DHT22;251;48.704;9.210;2022-12-19T11:18:16;1.40;99.90
530;DHT22;251;48.704;9.210;2022-12-19T11:20:53;1.80;99.90
530;DHT22;251;48.704;9.210;2022-12-19T11:23:22;1.80;99.90
530;DHT22;251;48.704;9.210;2022-12-19T11:25:56;1.70;99.90
530;DHT22;251;48.704;9.210;2022-12-19T11:28:26;1.60;99.90
530;DHT22;251;48.704;9.210;2022-12-19T11:31:00;1.50;99.90
530;DHT22;251;48.704;9.210;2022-12-19T11:33:28;1.50;99.90
530;DHT22;251;48.704;9.210;2022-12-19T11:35:57;1.80;99.90
530;DHT22;251;48.704;9.210;2022-12-19T11:38:35;1.70;99.90
530;DHT22;251;48.704;9.210;2022-12-19T11:41:11;1.50;99.90
530;DHT22;251;48.704;9.210;2022-12-19T11:43:49;1.80;99.90
530;DHT22;251;48.704;9.210;2022-12-19T11:46:32;2.00;99.90
530;DHT22;251;48.704;9.210;2022-12-19T11:49:03;1.80;99.90
530;DHT22;251;48.704;9.210;2022-12-19T11:51:36;1.90;99.90
530;DHT22;251;48.704;9.210;2022-12-19T11:54:12;1.70;99.90
530;DHT22;251;48.704;9.210;2022-12-19T11:56:41;1.80;99.90
530;DHT22;251;48.704;9.210;2022-12-19T11:59:16;1.80;99.90
530;DHT22;251;48.704;9.210;2022-12-19T12:05:35;1.80;99.90
530;DHT22;251;48.704;9.210;2022-12-19T12:11:00;1.70;99.90
530;DHT22;251;48.704;9.210;2022-12-19T12:13:36;2.10;99.90
530;DHT22;251;48.704;9.210;2022-12-19T12:16:08;1.80;99.90
530;DHT22;251;48.704;9.210;2022-12-19T12:18:51;1.90;99.90
530;DHT22;251;48.704;9.210;2022-12-19T12:21:31;1.80;99.90
530;DHT22;251;48.704;9.210;2022-12-19T12:24:09;2.00;99.90
530;DHT22;251;48.704;9.210;2022-12-19T12:26:44;2.30;99.90
530;DHT22;251;48.704;9.210;2022-12-19T12:29:17;2.30;99.90
530;DHT22;251;48.704;9.210;2022-12-19T12:32:01;2.30;99.90
530;DHT22;251;48.704;9.210;2022-12-19T12:37:36;2.00;99.90
530;DHT22;251;48.704;9.210;2022-12-19T12:40:19;2.30;99.90
530;DHT22;251;48.704;9.210;2022-12-19T12:42:56;2.00;99.90
530;DHT22;251;48.704;9.210;2022-12-19T12:45:39;2.30;99.90
530;DHT22;251;48.704;9.210;2022-12-19T12:48:15;2.60;99.90
530;DHT22;251;48.704;9.210;2022-12-19T12:50:44;2.60;99.90
530;DHT22;251;48.704;9.210;2022-12-19T12:53:17;2.20;99.90
530;DHT22;251;48.704;9.210;2022-12-19T12:55:47;2.60;99.90
530;DHT22;251;48.704;9.210;2022-12-19T12:58:43;2.30;99.90
530;DHT22;251;48.704;9.210;2022-12-19T13:01:13;2.20;99.90
530;DHT22;251;48.704;9.210;2022-12-19T13:03:42;2.60;99.90
530;DHT22;251;48.704;9.210;2022-12-19T13:06:25;2.30;99.90
530;DHT22;251;48.704;9.210;2022-12-19T13:08:56;2.50;99.90
530;DHT22;251;48.704;9.210;2022-12-19T13:11:37;2.60;99.90
530;DHT22;251;48.704;9.210;2022-12-19T13:14:46;2.60;99.90
530;DHT22;251;48.704;9.210;2022-12-19T13:17:18;2.60;99.90
530;DHT22;251;48.704;9.210;2022-12-19T13:19:54;2.60;99.90
530;DHT22;251;48.704;9.210;2022-12-19T13:22:37;2.10;99.90
530;DHT22;251;48.704;9.210;2022-12-19T13:31:17;2.60;99.90
530;DHT22;251;48.704;9.210;2022-12-19T13:33:46;2.50;99.90
530;DHT22;251;48.704;9.210;2022-12-19T13:39:29;2.30;99.90
530;DHT22;251;48.704;9.210;2022-12-19T13:42:10;2.50;99.90
530;DHT22;251;48.704;9.210;2022-12-19T13:45:00;2.20;99.90
530;DHT22;251;48.704;9.210;2022-12-19T13:47:31;2.60;99.90
530;DHT22;251;48.704;9.210;2022-12-19T13:50:02;2.50;99.90
530;DHT22;251;48.704;9.210;2022-12-19T13:52:29;2.10;99.90
530;DHT22;251;48.704;9.210;2022-12-19T13:54:57;2.60;99.90
530;DHT22;251;48.704;9.210;2022-12-19T13:57:26;2.10;99.90
530;DHT22;251;48.704;9.210;2022-12-19T13:59:55;2.50;99.90
530;DHT22;251;48.704;9.210;2022-12-19T14:02:27;2.00;99.90
530;DHT22;251;48.704;9.210;2022-12-19T14:04:55;2.20;99.90
530;DHT22;251;48.704;9.210;2022-12-19T14:07:31;2.60;99.90
530;DHT22;251;48.704;9.210;2022-12-19T14:10:00;2.30;99.90
530;DHT22;251;48.704;9.210;2022-12-19T14:12:29;2.10;99.90
530;DHT22;251;48.704;9.210;2022-12-19T14:15:23;2.50;99.90
530;DHT22;251;48.704;9.210;2022-12-19T14:17:51;2.10;99.90
530;DHT22;251;48.704;9.210;2022-12-19T14:20:20;2.00;99.90
530;DHT22;251;48.704;9.210;2022-12-19T14:22:47;2.00;99.90
530;DHT22;251;48.704;9.210;2022-12-19T14:25:14;2.00;99.90
530;DHT22;251;48.704;9.210;2022-12-19T14:27:45;2.00;99.90
530;DHT22;251;48.704;9.210;2022-12-19T14:30:17;2.00;99.90
530;DHT22;251;48.704;9.210;2022-12-19T14:32:46;2.00;99.90
530;DHT22;251;48.704;9.210;2022-12-19T14:35:17;2.00;99.90
530;DHT22;251;48.704;9.210;2022-12-19T14:37:46;2.30;99.90
530;DHT22;251;48.704;9.210;2022-12-19T14:40:23;2.00;99.90
530;DHT22;251;48.704;9.210;2022-12-19T14:42:55;2.00;99.90
530;DHT22;251;48.704;9.210;2022-12-19T14:45:41;2.00;99.90
530;DHT22;251;48.704;9.210;2022-12-19T14:48:29;2.30;99.90
530;DHT22;251;48.704;9.210;2022-12-19T14:51:10;2.00;99.90
530;DHT22;251;48.704;9.210;2022-12-19T14:53:38;1.90;99.90
530;DHT22;251;48.704;9.210;2022-12-19T14:56:08;2.00;99.90
530;DHT22;251;48.704;9.210;2022-12-19T14:58:37;2.00;99.90
530;DHT22;251;48.704;9.210;2022-12-19T15:01:19;2.00;99.90
530;DHT22;251;48.704;9.210;2022-12-19T15:03:51;1.90;99.90
530;DHT22;251;48.704;9.210;2022-12-19T15:06:25;2.00;99.90
530;DHT22;251;48.704;9.210;2022-12-19T15:08:56;2.00;99.90
530;DHT22;251;48.704;9.210;2022-12-19T15:11:27;2.00;99.90
530;DHT22;251;48.704;9.210;2022-12-19T15:14:12;1.80;99.90
530;DHT22;251;48.704;9.210;2022-12-19T15:16:39;2.00;99.90
530;DHT22;251;48.704;9.210;2022-12-19T15:19:11;1.80;99.90
530;DHT22;251;48.704;9.210;2022-12-19T15:21:40;2.20;99.90
530;DHT22;251;48.704;9.210;2022-12-19T15:24:07;2.00;99.90
530;DHT22;251;48.704;9.210;2022-12-19T15:26:40;1.80;99.90
530;DHT22;251;48.704;9.210;2022-12-19T15:29:12;2.00;99.90
530;DHT22;251;48.704;9.210;2022-12-19T15:31:41;1.70;99.90
530;DHT22;251;48.704;9.210;2022-12-19T15:34:20;1.70;99.90
530;DHT22;251;48.704;9.210;2022-12-19T15:36:48;1.80;99.90
530;DHT22;251;48.704;9.210;2022-12-19T15:39:15;2.00;99.90
530;DHT22;251;48.704;9.210;2022-12-19T15:41:43;1.80;99.90
530;DHT22;251;48.704;9.210;2022-12-19T15:44:15;2.00;99.90
530;DHT22;251;48.704;9.210;2022-12-19T15:46:42;1.50;99.90
530;DHT22;251;48.704;9.210;2022-12-19T15:49:13;1.50;99.90
530;DHT22;251;48.704;9.210;2022-12-19T15:51:40;1.50;99.90
530;DHT22;251;48.704;9.210;2022-12-19T15:54:08;1.40;99.90
530;DHT22;251;48.704;9.210;2022-12-19T15:56:37;1.80;99.90
530;DHT22;251;48.704;9.210;2022-12-19T15:59:05;1.80;99.90
530;DHT22;251;48.704;9.210;2022-12-19T16:01:37;1.80;99.90
530;DHT22;251;48.704;9.210;2022-12-19T16:04:10;1.40;99.90
530;DHT22;251;48.704;9.210;2022-12-19T16:06:37;1.40;99.90
530;DHT22;251;48.704;9.210;2022-12-19T16:09:10;1.30;99.90
530;DHT22;251;48.704;9.210;2022-12-19T16:11:41;1.30;99.90
530;DHT22;251;48.704;9.210;2022-12-19T16:14:10;1.30;99.90
530;DHT22;251;48.704;9.210;2022-12-19T16:16:37;1.30;99.90
530;DHT22;251;48.704;9.210;2022-12-19T16:19:19;1.20;99.90
530;DHT22;251;48.704;9.210;2022-12-19T16:21:47;1.20;99.90
530;DHT22;251;48.704;9.210;2022-12-19T16:24:16;1.30;99.90
530;DHT22;251;48.704;9.210;2022-12-19T16:26:43;1.40;99.90
530;DHT22;251;48.704;9.210;2022-12-19T16:29:17;1.30;99.90
530;DHT22;251;48.704;9.210;2022-12-19T16:31:44;1.40;99.90
530;DHT22;251;48.704;9.210;2022-12-19T16:34:13;1.30;99.90
530;DHT22;251;48.704;9.210;2022-12-19T16:36:41;1.40;99.90
530;DHT22;251;48.704;9.210;2022-12-19T16:39:08;1.20;99.90
530;DHT22;251;48.704;9.210;2022-12-19T16:41:36;1.10;99.90
530;DHT22;251;48.704;9.210;2022-12-19T16:44:03;1.40;99.90
530;DHT22;251;48.704;9.210;2022-12-19T16:46:32;1.20;99.90
530;DHT22;251;48.704;9.210;2022-12-19T16:48:59;1.00;99.90
530;DHT22;251;48.704;9.210;2022-12-19T16:51:27;1.10;99.90
530;DHT22;251;48.704;9.210;2022-12-19T16:53:55;1.00;99.90
530;DHT22;251;48.704;9.210;2022-12-19T16:56:24;1.00;99.90
530;DHT22;251;48.704;9.210;2022-12-19T16:58:55;1.00;99.90
530;DHT22;251;48.704;9.210;2022-12-19T17:01:24;1.10;99.90
530;DHT22;251;48.704;9.210;2022-12-19T17:03:51;0.90;99.90
530;DHT22;251;48.704;9.210;2022-12-19T17:06:20;1.10;99.90
530;DHT22;251;48.704;9.210;2022-12-19T17:08:47;1.00;99.90
530;DHT22;251;48.704;9.210;2022-12-19T17:11:15;1.00;99.90
530;DHT22;251;48.704;9.210;2022-12-19T17:13:44;1.00;99.90
530;DHT22;251;48.704;9.210;2022-12-19T17:16:13;1.00;99.90
530;DHT22;251;48.704;9.210;2022-12-19T17:18:41;1.00;99.90
530;DHT22;251;48.704;9.210;2022-12-19T17:21:12;0.80;99.90
530;DHT22;251;48.704;9.210;2022-12-19T17:23:40;1.10;99.90
530;DHT22;251;48.704;9.210;2022-12-19T17:26:07;1.00;99.90